Time;durP1;ratioP1;P1;durP2;ratioP2;P2;SDS_P1;SDS_P2;PMS_P1;PMS_P2;Temp;Humidity;BMP_temperature;BMP_pressure;BME280_temperature;BME280_humidity;BME280_pressure;Samples;Min_cycle;Max_cycle;Signal;HPM_P1;HPM_P2
2024/01/14 00:01:44;;;;;;;41.05;24.15;;;4.40;99.90;;;;;;5099307;28;20096;-34
2024/01/14 00:04:09;;;;;;;41.38;24.42;;;4.50;99.90;;;;;;5099391;28;20473;-36
2024/01/14 00:06:35;;;;;;;38.95;22.33;;;4.50;99.90;;;;;;5098977;28;20156;-36
2024/01/14 00:09:01;;;;;;;36.78;22.20;;;4.40;99.90;;;;;;5097795;28;20835;-36
2024/01/14 00:11:27;;;;;;;38.33;21.58;;;4.50;99.90;;;;;;5098805;28;20035;-36
2024/01/14 00:13:52;;;;;;;40.95;23.50;;;4.50;99.90;;;;;;5098821;28;20540;-37
2024/01/14 00:16:18;;;;;;;42.97;24.15;;;4.50;99.90;;;;;;5098777;28;20105;-36
2024/01/14 00:18:43;;;;;;;39.45;23.05;;;4.50;99.90;;;;;;5098553;28;20019;-36
2024/01/14 00:21:09;;;;;;;37.42;21.67;;;4.50;99.90;;;;;;5099283;28;20135;-37
2024/01/14 00:23:38;;;;;;;37.50;21.83;;;4.50;99.90;;;;;;5099008;28;20023;-37
2024/01/14 00:26:03;;;;;;;41.50;22.70;;;4.50;99.90;;;;;;5097968;28;20042;-36
2024/01/14 00:28:29;;;;;;;47.42;24.80;;;4.50;99.90;;;;;;5099058;28;20030;-36
2024/01/14 00:30:54;;;;;;;44.05;22.67;;;4.60;99.90;;;;;;5098735;28;20023;-37
2024/01/14 00:33:20;;;;;;;40.45;22.92;;;4.50;99.90;;;;;;5099982;28;20043;-36
2024/01/14 00:35:46;;;;;;;39.92;22.52;;;4.50;99.90;;;;;;5103756;28;20024;-34
2024/01/14 00:38:13;;;;;;;39.58;22.55;;;4.50;99.90;;;;;;5103542;28;20031;-35
2024/01/14 00:40:39;;;;;;;35.55;21.40;;;4.50;99.90;;;;;;5103426;28;20532;-35
2024/01/14 00:43:04;;;;;;;33.83;19.13;;;4.50;99.90;;;;;;5102836;28;20785;-34
2024/01/14 00:45:30;;;;;;;33.17;19.15;;;4.50;99.90;;;;;;5104204;28;20035;-35
2024/01/14 00:47:56;;;;;;;40.85;20.35;;;4.50;99.90;;;;;;5102994;28;20028;-36
2024/01/14 00:50:21;;;;;;;36.83;20.10;;;4.50;99.90;;;;;;5104411;28;20027;-36
2024/01/14 00:52:47;;;;;;;35.47;20.10;;;4.50;99.90;;;;;;5103403;28;20034;-35
2024/01/14 00:55:13;;;;;;;35.75;20.48;;;4.50;99.90;;;;;;5102340;28;20039;-35
2024/01/14 00:57:39;;;;;;;32.50;19.40;;;4.50;99.90;;;;;;5103912;28;20426;-35
2024/01/14 01:00:09;;;;;;;43.80;22.67;;;4.50;99.90;;;;;;5103545;28;20110;-35
2024/01/14 01:02:35;;;;;;;38.38;21.35;;;4.50;99.90;;;;;;5102371;28;20474;-35
2024/01/14 01:05:01;;;;;;;36.72;21.08;;;4.50;99.90;;;;;;5102962;28;20507;-34
2024/01/14 01:07:27;;;;;;;42.97;22.70;;;4.50;99.90;;;;;;5103576;28;20067;-35
2024/01/14 01:09:52;;;;;;;45.03;24.15;;;4.50;99.90;;;;;;5102683;28;20470;-35
2024/01/14 01:12:21;;;;;;;43.13;23.80;;;4.50;99.90;;;;;;5103400;28;20435;-35
2024/01/14 01:14:47;;;;;;;45.78;24.95;;;4.50;99.90;;;;;;5102050;28;20057;-35
2024/01/14 01:17:13;;;;;;;46.88;25.05;;;4.50;99.90;;;;;;5102988;28;20074;-36
2024/01/14 01:19:38;;;;;;;46.67;25.40;;;4.50;99.90;;;;;;5102432;28;20449;-36
2024/01/14 01:22:04;;;;;;;55.17;28.55;;;4.50;99.90;;;;;;5100815;28;20857;-36
2024/01/14 01:24:29;;;;;;;48.35;25.80;;;4.50;99.90;;;;;;5102646;28;20488;-37
2024/01/14 01:26:55;;;;;;;51.65;27.10;;;4.50;99.90;;;;;;5101929;28;20032;-36
2024/01/14 01:29:21;;;;;;;48.42;24.58;;;4.50;99.90;;;;;;5102017;28;20034;-38
2024/01/14 01:31:46;;;;;;;45.47;24.80;;;4.50;99.90;;;;;;5101157;28;20060;-36
2024/01/14 01:34:12;;;;;;;42.28;23.13;;;4.50;99.90;;;;;;5102780;28;20160;-36
2024/01/14 01:36:40;;;;;;;40.40;22.30;;;4.50;99.90;;;;;;5102047;28;20489;-36
2024/01/14 01:39:06;;;;;;;37.38;21.08;;;4.50;99.90;;;;;;5102786;28;20039;-36
2024/01/14 01:41:32;;;;;;;34.47;20.35;;;4.50;99.90;;;;;;5102324;28;20019;-36
2024/01/14 01:43:57;;;;;;;37.40;20.60;;;4.60;99.90;;;;;;5101391;28;20723;-36
2024/01/14 01:46:23;;;;;;;36.97;20.08;;;4.60;99.90;;;;;;5101117;28;20034;-36
2024/01/14 01:48:48;;;;;;;36.88;21.17;;;4.60;99.90;;;;;;5101951;28;20108;-36
2024/01/14 01:51:14;;;;;;;37.28;21.05;;;4.60;99.90;;;;;;5100924;28;20044;-36
2024/01/14 01:53:41;;;;;;;35.92;20.83;;;4.60;99.90;;;;;;5102214;28;20134;-36
2024/01/14 01:56:06;;;;;;;42.05;22.25;;;4.60;99.90;;;;;;5102231;28;20028;-36
2024/01/14 01:58:32;;;;;;;42.10;23.33;;;4.60;99.90;;;;;;5101582;28;20101;-36
2024/01/14 02:00:58;;;;;;;37.22;22.35;;;4.60;99.90;;;;;;5101431;28;20463;-36
2024/01/14 02:03:24;;;;;;;40.03;24.13;;;4.70;99.90;;;;;;5101270;28;20038;-36
2024/01/14 02:05:56;;;;;;;38.63;22.08;;;4.70;99.90;;;;;;5100656;28;20032;-36
2024/01/14 02:08:22;;;;;;;45.03;26.13;;;4.60;99.90;;;;;;5101378;28;20071;-36
2024/01/14 02:10:47;;;;;;;47.10;26.80;;;4.70;99.90;;;;;;5098611;28;20168;-35
2024/01/14 02:13:13;;;;;;;49.58;26.08;;;4.60;99.90;;;;;;5099943;28;20830;-35
2024/01/14 02:15:39;;;;;;;49.95;27.83;;;4.60;99.90;;;;;;5100176;28;20038;-36
2024/01/14 02:18:04;;;;;;;58.95;31.83;;;4.60;99.90;;;;;;5100235;28;20536;-35
2024/01/14 02:20:30;;;;;;;49.78;28.63;;;4.60;99.90;;;;;;5101180;28;20494;-35
2024/01/14 02:22:58;;;;;;;52.75;28.75;;;4.50;99.90;;;;;;5100818;28;20574;-35
2024/01/14 02:25:24;;;;;;;47.92;26.92;;;4.60;99.90;;;;;;5090380;28;20019;-36
2024/01/14 02:27:50;;;;;;;46.88;25.40;;;4.60;99.90;;;;;;5101581;28;20028;-36
2024/01/14 02:30:16;;;;;;;50.35;27.05;;;4.60;99.90;;;;;;5101702;28;20031;-36
2024/01/14 02:32:42;;;;;;;50.15;26.40;;;4.60;99.90;;;;;;5100435;28;20032;-36
2024/01/14 02:35:08;;;;;;;49.13;25.27;;;4.60;99.90;;;;;;5100569;28;20767;-36
2024/01/14 02:37:35;;;;;;;41.97;24.55;;;4.60;99.90;;;;;;5101201;28;20784;-36
2024/01/14 02:40:04;;;;;;;48.92;26.15;;;4.60;99.90;;;;;;5099130;28;20024;-36
2024/01/14 02:42:30;;;;;;;47.85;26.13;;;4.50;99.90;;;;;;5101384;28;20106;-36
2024/01/14 02:44:58;;;;;;;45.75;24.67;;;4.50;99.90;;;;;;5098650;28;20089;-36
2024/01/14 02:47:23;;;;;;;42.33;23.20;;;4.60;99.90;;;;;;5100232;28;20027;-34
2024/01/14 02:49:49;;;;;;;46.78;25.90;;;4.50;99.90;;;;;;5098364;28;20027;-35
2024/01/14 02:52:15;;;;;;;48.25;27.48;;;4.60;99.90;;;;;;5099823;28;20024;-35
2024/01/14 02:54:40;;;;;;;47.42;27.90;;;4.50;99.90;;;;;;5100583;28;20012;-36
2024/01/14 02:57:06;;;;;;;55.53;30.08;;;4.50;99.90;;;;;;5098951;28;20063;-36
2024/01/14 02:59:32;;;;;;;57.25;30.65;;;4.50;99.90;;;;;;5100600;28;20054;-36
2024/01/14 03:01:58;;;;;;;48.72;28.15;;;4.50;99.90;;;;;;5099887;28;20058;-35
2024/01/14 03:04:23;;;;;;;46.03;26.35;;;4.40;99.90;;;;;;5099715;28;20134;-37
2024/01/14 03:06:49;;;;;;;52.80;29.45;;;4.40;99.90;;;;;;5100544;28;20028;-36
2024/01/14 03:09:15;;;;;;;55.22;28.98;;;4.50;99.90;;;;;;5099132;28;20105;-36
2024/01/14 03:11:40;;;;;;;57.95;32.75;;;4.40;99.90;;;;;;5100504;28;20019;-35
2024/01/14 03:14:06;;;;;;;55.85;31.02;;;4.40;99.90;;;;;;5100120;28;20082;-35
2024/01/14 03:16:31;;;;;;;58.53;31.08;;;4.40;99.90;;;;;;5099044;28;20035;-35
2024/01/14 03:18:57;;;;;;;55.72;30.33;;;4.40;99.90;;;;;;5099411;28;20027;-35
2024/01/14 03:21:22;;;;;;;53.78;30.83;;;4.40;99.90;;;;;;5099098;28;20035;-35
2024/01/14 03:23:49;;;;;;;54.70;29.83;;;4.40;99.90;;;;;;5100795;28;20023;-38
2024/01/14 03:26:14;;;;;;;52.20;29.50;;;4.40;99.90;;;;;;5099135;28;21087;-35
2024/01/14 03:28:40;;;;;;;53.40;29.55;;;4.30;99.90;;;;;;5099016;28;20016;-35
2024/01/14 03:31:07;;;;;;;61.40;33.45;;;4.30;99.90;;;;;;5099655;28;20113;-36
2024/01/14 03:33:33;;;;;;;58.55;32.47;;;4.30;99.90;;;;;;5099666;28;20042;-36
2024/01/14 03:36:00;;;;;;;67.18;36.08;;;4.30;99.90;;;;;;5098679;28;20023;-35
2024/01/14 03:38:26;;;;;;;69.50;36.90;;;4.30;99.90;;;;;;5100040;28;20035;-36
2024/01/14 03:40:51;;;;;;;68.07;36.33;;;4.30;99.90;;;;;;5099745;28;20084;-35
2024/01/14 03:43:17;;;;;;;61.83;33.83;;;4.30;99.90;;;;;;5099732;28;20108;-35
2024/01/14 03:45:42;;;;;;;63.17;34.75;;;4.30;99.90;;;;;;5099643;28;20379;-36
2024/01/14 03:48:08;;;;;;;76.38;39.00;;;4.20;99.90;;;;;;5100265;28;20035;-36
2024/01/14 03:50:33;;;;;;;70.30;37.70;;;4.20;99.90;;;;;;5098975;28;20031;-36
2024/01/14 03:53:02;;;;;;;75.38;39.40;;;4.20;99.90;;;;;;5099342;28;20050;-36
2024/01/14 03:55:27;;;;;;;85.03;40.72;;;4.20;99.90;;;;;;5099688;28;20059;-36
2024/01/14 03:57:53;;;;;;;71.68;37.92;;;4.20;99.90;;;;;;5099276;28;20055;-35
2024/01/14 04:00:19;;;;;;;72.85;39.85;;;4.10;99.90;;;;;;5100736;28;20051;-36
2024/01/14 04:02:45;;;;;;;71.35;36.50;;;4.10;99.90;;;;;;5100175;28;20031;-35
2024/01/14 04:05:11;;;;;;;70.43;36.13;;;4.10;99.90;;;;;;5099399;28;20024;-36
2024/01/14 04:07:36;;;;;;;66.78;35.63;;;4.10;99.90;;;;;;5098993;28;20282;-35
2024/01/14 04:10:02;;;;;;;69.18;34.90;;;4.10;99.90;;;;;;5098570;28;20095;-36
2024/01/14 04:12:28;;;;;;;73.00;37.58;;;4.10;99.90;;;;;;5098475;28;20687;-35
2024/01/14 04:14:53;;;;;;;69.18;36.85;;;4.00;99.90;;;;;;5099139;28;20034;-36
2024/01/14 04:17:19;;;;;;;73.10;37.03;;;4.00;99.90;;;;;;5099504;28;20035;-35
2024/01/14 04:19:45;;;;;;;75.75;38.13;;;4.00;99.90;;;;;;5098522;28;20024;-37
2024/01/14 04:22:10;;;;;;;69.90;35.83;;;4.00;99.90;;;;;;5098938;28;20471;-35
2024/01/14 04:24:36;;;;;;;69.10;33.03;;;4.00;99.90;;;;;;5099403;28;20798;-35
2024/01/14 04:27:01;;;;;;;68.15;33.70;;;4.00;99.90;;;;;;5099420;28;20027;-35
2024/01/14 04:29:27;;;;;;;71.97;37.47;;;4.00;99.90;;;;;;5099925;28;20102;-36
2024/01/14 04:31:52;;;;;;;75.72;39.10;;;4.00;99.90;;;;;;5099380;28;20032;-36
2024/01/14 04:34:18;;;;;;;69.80;37.15;;;4.00;99.90;;;;;;5099225;28;20363;-37
2024/01/14 04:36:44;;;;;;;71.70;36.50;;;4.00;99.90;;;;;;5100376;28;20066;-36
2024/01/14 04:39:10;;;;;;;74.60;37.35;;;4.00;99.90;;;;;;5099523;28;20098;-36
2024/01/14 04:41:36;;;;;;;68.03;35.35;;;4.00;99.90;;;;;;5100178;28;20031;-36
2024/01/14 04:44:02;;;;;;;73.80;37.00;;;4.00;99.90;;;;;;5098420;28;20023;-36
2024/01/14 04:46:27;;;;;;;69.78;37.40;;;4.00;99.90;;;;;;5099165;28;20031;-36
2024/01/14 04:48:53;;;;;;;66.10;35.38;;;4.00;99.90;;;;;;5098997;28;20065;-36
2024/01/14 04:51:18;;;;;;;65.80;34.08;;;4.00;99.90;;;;;;5098925;28;20063;-36
2024/01/14 04:53:44;;;;;;;63.25;33.85;;;4.00;99.90;;;;;;5097400;28;20031;-36
2024/01/14 04:56:10;;;;;;;65.53;34.28;;;4.00;99.90;;;;;;5099201;28;20027;-36
2024/01/14 04:58:36;;;;;;;77.30;39.08;;;4.00;99.90;;;;;;5099755;28;20062;-36
2024/01/14 05:01:02;;;;;;;73.38;36.78;;;4.00;99.90;;;;;;5098258;28;20100;-36
2024/01/14 05:03:28;;;;;;;76.10;40.92;;;4.00;99.90;;;;;;5099543;28;20807;-36
2024/01/14 05:05:53;;;;;;;78.63;38.22;;;4.00;99.90;;;;;;5097764;28;20027;-37
2024/01/14 05:08:19;;;;;;;66.93;35.22;;;4.00;99.90;;;;;;5098204;28;20035;-36
2024/01/14 05:10:44;;;;;;;71.32;36.28;;;3.90;99.90;;;;;;5098853;28;20027;-37
2024/01/14 05:13:10;;;;;;;72.53;37.63;;;4.00;99.90;;;;;;5098344;28;20035;-36
2024/01/14 05:15:36;;;;;;;69.35;35.22;;;3.90;99.90;;;;;;5096356;28;20076;-35
2024/01/14 05:18:01;;;;;;;68.07;34.97;;;3.90;99.90;;;;;;5097000;28;20092;-36
2024/01/14 05:20:27;;;;;;;65.82;34.38;;;4.00;99.90;;;;;;5098029;28;20031;-36
2024/01/14 05:22:53;;;;;;;66.75;33.88;;;3.90;99.90;;;;;;5101152;28;20109;-36
2024/01/14 05:25:18;;;;;;;66.53;34.75;;;3.90;99.90;;;;;;5102565;28;20034;-36
2024/01/14 05:27:44;;;;;;;62.83;33.08;;;3.90;99.90;;;;;;5102779;28;20535;-36
2024/01/14 05:30:10;;;;;;;62.33;32.70;;;3.90;99.90;;;;;;5101671;28;20130;-36
2024/01/14 05:32:36;;;;;;;60.75;31.98;;;3.90;99.90;;;;;;5103078;28;20071;-36
2024/01/14 05:35:02;;;;;;;67.22;33.97;;;3.90;99.90;;;;;;5100104;28;20173;-36
2024/01/14 05:37:27;;;;;;;57.17;31.65;;;3.90;99.90;;;;;;5101337;28;20031;-36
2024/01/14 05:39:53;;;;;;;70.53;36.08;;;3.90;99.90;;;;;;5101382;28;20007;-36
2024/01/14 05:42:18;;;;;;;67.70;33.72;;;3.90;99.90;;;;;;5101586;28;20487;-36
2024/01/14 05:44:44;;;;;;;64.88;34.70;;;3.90;99.90;;;;;;5102120;28;20030;-36
2024/01/14 05:47:10;;;;;;;68.18;35.65;;;3.90;99.90;;;;;;5101651;28;20015;-35
2024/01/14 05:49:35;;;;;;;63.88;32.97;;;3.90;99.90;;;;;;5102622;28;20031;-36
2024/01/14 05:52:01;;;;;;;59.45;32.95;;;3.90;99.90;;;;;;5100156;28;20046;-36
2024/01/14 05:54:26;;;;;;;69.00;34.25;;;3.80;99.90;;;;;;5103145;28;20111;-37
2024/01/14 05:56:52;;;;;;;59.42;31.08;;;3.80;99.90;;;;;;5100973;28;20537;-37
2024/01/14 05:59:18;;;;;;;61.17;32.25;;;3.80;99.90;;;;;;5102103;28;20795;-37
2024/01/14 06:01:43;;;;;;;54.45;29.83;;;3.80;99.90;;;;;;5101627;28;20027;-36
2024/01/14 06:04:09;;;;;;;51.75;28.05;;;3.80;99.90;;;;;;5101433;28;20027;-37
2024/01/14 06:06:34;;;;;;;51.30;27.35;;;3.80;99.90;;;;;;5102020;28;20024;-37
2024/01/14 06:09:00;;;;;;;60.75;32.60;;;3.80;99.90;;;;;;5101340;28;20051;-37
2024/01/14 06:11:25;;;;;;;52.65;28.25;;;3.80;99.90;;;;;;5101078;28;20031;-37
2024/01/14 06:13:51;;;;;;;56.92;29.02;;;3.80;99.90;;;;;;5101336;27;20035;-36
2024/01/14 06:16:17;;;;;;;55.22;29.85;;;3.70;99.90;;;;;;5100589;28;20468;-37
2024/01/14 06:18:42;;;;;;;58.20;30.02;;;3.70;99.90;;;;;;5100747;28;20036;-37
2024/01/14 06:21:08;;;;;;;55.22;29.98;;;3.70;99.90;;;;;;5100390;28;20063;-37
2024/01/14 06:23:35;;;;;;;59.53;31.73;;;3.70;99.90;;;;;;5099501;28;20036;-35
2024/01/14 06:26:01;;;;;;;55.35;27.67;;;3.70;99.90;;;;;;5100538;28;20023;-36
2024/01/14 06:28:26;;;;;;;54.55;29.92;;;3.70;99.90;;;;;;5101548;28;20043;-37
2024/01/14 06:30:52;;;;;;;63.83;32.10;;;3.70;99.90;;;;;;5100373;28;20036;-36
2024/01/14 06:33:18;;;;;;;59.88;31.65;;;3.60;99.90;;;;;;5100536;28;20039;-36
2024/01/14 06:35:44;;;;;;;57.80;29.33;;;3.60;99.90;;;;;;5100301;28;20592;-36
2024/01/14 06:38:09;;;;;;;61.38;30.27;;;3.60;99.90;;;;;;5101336;28;20114;-37
2024/01/14 06:40:35;;;;;;;60.90;30.85;;;3.60;99.90;;;;;;5100021;28;20819;-36
2024/01/14 06:43:01;;;;;;;58.92;30.50;;;3.60;99.90;;;;;;5098047;28;20039;-35
2024/01/14 06:45:26;;;;;;;60.30;31.17;;;3.60;99.90;;;;;;5101158;28;20035;-36
2024/01/14 06:47:52;;;;;;;60.15;30.80;;;3.60;99.90;;;;;;5100084;28;20126;-36
2024/01/14 06:50:17;;;;;;;57.72;30.58;;;3.60;99.90;;;;;;5100947;28;20028;-36
2024/01/14 06:52:43;;;;;;;54.28;28.70;;;3.60;99.90;;;;;;5100427;28;20078;-36
2024/01/14 06:55:11;;;;;;;51.50;27.90;;;3.60;99.90;;;;;;5099835;28;20027;-36
2024/01/14 06:57:37;;;;;;;51.10;26.17;;;3.60;99.90;;;;;;5100882;28;20024;-36
2024/01/14 07:00:04;;;;;;;52.63;27.98;;;3.60;99.90;;;;;;5099488;28;20386;-36
2024/01/14 07:02:30;;;;;;;46.80;26.77;;;3.60;99.90;;;;;;5099721;28;20035;-37
2024/01/14 07:04:56;;;;;;;48.95;25.65;;;3.60;99.90;;;;;;5100347;28;20031;-35
2024/01/14 07:07:22;;;;;;;45.00;24.17;;;3.60;99.90;;;;;;5098057;28;20061;-36
2024/01/14 07:09:48;;;;;;;46.10;24.08;;;3.60;99.90;;;;;;5099953;28;20043;-37
2024/01/14 07:12:14;;;;;;;46.10;24.48;;;3.60;99.90;;;;;;5098589;28;20059;-36
2024/01/14 07:14:40;;;;;;;53.65;28.17;;;3.60;99.90;;;;;;5099343;28;20045;-40
2024/01/14 07:17:05;;;;;;;53.00;27.92;;;3.60;99.90;;;;;;5100311;28;20491;-36
2024/01/14 07:19:31;;;;;;;50.92;28.23;;;3.60;99.90;;;;;;5100455;28;20027;-36
2024/01/14 07:21:56;;;;;;;55.50;30.05;;;3.60;99.90;;;;;;5099352;28;20151;-36
2024/01/14 07:24:22;;;;;;;56.75;29.75;;;3.60;99.90;;;;;;5101221;28;20049;-36
2024/01/14 07:26:48;;;;;;;56.65;29.70;;;3.60;99.90;;;;;;5099986;28;20382;-36
2024/01/14 07:29:13;;;;;;;61.92;31.02;;;3.60;99.90;;;;;;5097779;28;20130;-35
2024/01/14 07:31:39;;;;;;;58.83;30.00;;;3.60;99.90;;;;;;5100297;28;20032;-36
2024/01/14 07:34:05;;;;;;;54.58;30.02;;;3.60;99.90;;;;;;5099568;28;20024;-36
2024/01/14 07:36:31;;;;;;;59.20;31.50;;;3.60;99.90;;;;;;5099614;28;20035;-36
2024/01/14 07:38:58;;;;;;;61.03;31.45;;;3.60;99.90;;;;;;5098206;28;20023;-37
2024/01/14 07:41:24;;;;;;;55.83;30.40;;;3.60;99.90;;;;;;5100381;28;20344;-39
2024/01/14 07:43:50;;;;;;;54.83;30.08;;;3.60;99.90;;;;;;5098967;28;20020;-35
2024/01/14 07:46:16;;;;;;;60.33;31.17;;;3.60;99.90;;;;;;5099918;28;20042;-37
2024/01/14 07:48:44;;;;;;;63.25;32.83;;;3.60;99.90;;;;;;5098873;28;20035;-37
2024/01/14 07:51:10;;;;;;;61.00;31.50;;;3.60;99.90;;;;;;5099285;28;20077;-36
2024/01/14 07:53:36;;;;;;;80.50;37.08;;;3.60;99.90;;;;;;5100659;28;20248;-37
2024/01/14 07:56:02;;;;;;;66.20;33.85;;;3.60;99.90;;;;;;5098693;28;20467;-36
2024/01/14 07:58:28;;;;;;;65.82;34.15;;;3.60;99.90;;;;;;5099629;28;20027;-37
2024/01/14 08:00:54;;;;;;;59.78;33.17;;;3.60;99.90;;;;;;5095064;28;20549;-37
2024/01/14 08:03:19;;;;;;;59.53;31.80;;;3.60;99.90;;;;;;5099352;28;20394;-37
2024/01/14 08:05:46;;;;;;;58.90;31.60;;;3.60;99.90;;;;;;5100208;28;20030;-36
2024/01/14 08:08:12;;;;;;;62.17;32.85;;;3.60;99.90;;;;;;5096941;28;20050;-36
2024/01/14 08:10:38;;;;;;;58.20;31.38;;;3.60;99.90;;;;;;5098844;28;20390;-36
2024/01/14 08:13:04;;;;;;;57.50;31.50;;;3.60;99.90;;;;;;5098568;28;20051;-35
2024/01/14 08:15:30;;;;;;;62.38;33.95;;;3.60;99.90;;;;;;5098737;28;20026;-38
2024/01/14 08:17:55;;;;;;;62.78;32.60;;;3.60;99.90;;;;;;5098258;28;20023;-35
2024/01/14 08:20:21;;;;;;;60.50;32.13;;;3.60;99.90;;;;;;5097714;28;20024;-36
2024/01/14 08:22:46;;;;;;;59.80;32.13;;;3.60;99.90;;;;;;5100122;28;20034;-35
2024/01/14 08:25:12;;;;;;;63.28;33.45;;;3.70;99.90;;;;;;5097236;28;20024;-36
2024/01/14 08:27:38;;;;;;;62.13;33.35;;;3.60;99.90;;;;;;5099630;28;20034;-37
2024/01/14 08:30:07;;;;;;;55.20;30.50;;;3.60;99.90;;;;;;5097476;28;20015;-35
2024/01/14 08:32:36;;;;;;;61.50;32.92;;;3.60;99.90;;;;;;5097299;28;20860;-37
2024/01/14 08:35:04;;;;;;;58.53;31.23;;;3.70;99.90;;;;;;5097769;28;20059;-36
2024/01/14 08:37:30;;;;;;;66.78;34.67;;;3.70;99.90;;;;;;5097984;28;20482;-36
2024/01/14 08:39:56;;;;;;;65.78;32.92;;;3.70;99.90;;;;;;5088767;28;20118;-37
2024/01/14 08:42:22;;;;;;;54.78;30.52;;;3.70;99.90;;;;;;5098631;28;20035;-39
2024/01/14 08:44:47;;;;;;;61.72;30.83;;;3.70;99.90;;;;;;5099564;28;20370;-36
2024/01/14 08:47:13;;;;;;;61.60;32.47;;;3.70;99.90;;;;;;5097506;28;20084;-36
2024/01/14 08:49:42;;;;;;;64.70;34.90;;;3.70;99.90;;;;;;5099418;28;20032;-37
2024/01/14 08:52:08;;;;;;;66.93;34.70;;;3.70;99.90;;;;;;5097055;28;20822;-35
2024/01/14 08:54:34;;;;;;;64.72;33.10;;;3.70;99.90;;;;;;5097615;28;20039;-36
2024/01/14 08:57:03;;;;;;;63.50;32.80;;;3.70;99.90;;;;;;5102010;28;20024;-36
2024/01/14 08:59:29;;;;;;;64.18;33.50;;;3.70;99.90;;;;;;5102926;28;20027;-36
2024/01/14 09:01:57;;;;;;;63.33;35.15;;;3.70;99.90;;;;;;5102429;28;20813;-36
2024/01/14 09:04:23;;;;;;;61.05;32.30;;;3.70;99.90;;;;;;5103594;28;20043;-36
2024/01/14 09:06:48;;;;;;;67.40;34.33;;;3.70;99.90;;;;;;5099558;28;20027;-37
2024/01/14 09:09:16;;;;;;;71.68;35.97;;;3.60;99.90;;;;;;5100091;28;20463;-36
2024/01/14 09:11:45;;;;;;;67.07;34.30;;;3.70;99.90;;;;;;5101311;28;20785;-35
2024/01/14 09:14:10;;;;;;;70.75;35.78;;;3.70;99.90;;;;;;5100857;28;20547;-36
2024/01/14 09:16:36;;;;;;;66.15;36.42;;;3.70;99.90;;;;;;5100131;28;20042;-36
2024/01/14 09:19:02;;;;;;;66.35;35.58;;;3.70;99.90;;;;;;5095873;28;20039;-37
2024/01/14 09:21:28;;;;;;;74.78;37.53;;;3.70;99.90;;;;;;5100711;28;20066;-36
2024/01/14 09:23:53;;;;;;;70.95;36.47;;;3.70;99.90;;;;;;5100666;28;20612;-36
2024/01/14 09:26:20;;;;;;;64.47;35.00;;;3.70;99.90;;;;;;5101801;28;20020;-35
2024/01/14 09:28:46;;;;;;;63.88;33.17;;;3.70;99.90;;;;;;5100873;28;20103;-36
2024/01/14 09:31:12;;;;;;;68.63;38.03;;;3.70;99.90;;;;;;5101752;28;20044;-36
2024/01/14 09:33:38;;;;;;;63.42;34.08;;;3.70;99.90;;;;;;5101624;28;20061;-36
2024/01/14 09:36:08;;;;;;;62.80;32.47;;;3.70;99.90;;;;;;5097767;28;20024;-36
2024/01/14 09:38:34;;;;;;;57.55;30.80;;;3.80;99.90;;;;;;5098351;28;20094;-35
2024/01/14 09:41:14;;;;;;;55.28;30.80;;;3.80;99.90;;;;;;5098324;28;20020;-35
2024/01/14 09:43:47;;;;;;;60.47;32.13;;;3.80;99.90;;;;;;5097630;28;20015;-36
2024/01/14 09:46:13;;;;;;;49.15;27.20;;;3.80;99.90;;;;;;5100920;28;20530;-35
2024/01/14 09:48:39;;;;;;;52.65;28.35;;;3.80;99.90;;;;;;5101317;28;20071;-37
2024/01/14 09:51:08;;;;;;;56.25;30.73;;;3.80;99.90;;;;;;5097236;28;20108;-35
2024/01/14 09:53:36;;;;;;;54.45;29.92;;;3.80;99.90;;;;;;5098930;28;20051;-35
2024/01/14 09:56:07;;;;;;;64.03;33.25;;;3.80;99.90;;;;;;5100711;28;20027;-35
2024/01/14 09:58:33;;;;;;;61.58;33.88;;;3.80;99.90;;;;;;5100824;28;20024;-36
2024/01/14 10:01:03;;;;;;;57.95;32.38;;;3.80;99.90;;;;;;5101399;28;20065;-36
2024/01/14 10:03:29;;;;;;;57.05;31.42;;;3.80;99.90;;;;;;5100706;28;20035;-36
2024/01/14 10:05:56;;;;;;;58.50;30.25;;;3.90;99.90;;;;;;5100746;28;20032;-37
2024/01/14 10:08:22;;;;;;;52.70;28.88;;;3.90;99.90;;;;;;5101659;28;20089;-35
2024/01/14 10:10:55;;;;;;;50.15;28.80;;;3.90;99.90;;;;;;5100552;28;20023;-36
2024/01/14 10:13:20;;;;;;;;;;;3.90;99.90;;;;;;5100523;28;20093;-36
2024/01/14 10:15:47;;;;;;;52.70;28.95;;;3.90;99.90;;;;;;5101778;28;19904;-36
2024/01/14 10:18:13;;;;;;;54.58;29.42;;;3.90;99.90;;;;;;5099768;28;20104;-36
2024/01/14 10:20:38;;;;;;;62.58;34.72;;;3.90;99.90;;;;;;5101408;28;20027;-36
2024/01/14 10:23:04;;;;;;;62.83;33.85;;;3.90;99.90;;;;;;5101410;28;20032;-36
2024/01/14 10:25:30;;;;;;;60.67;31.00;;;3.90;99.90;;;;;;5100356;28;20105;-36
2024/01/14 10:27:57;;;;;;;61.50;31.92;;;3.90;99.90;;;;;;5100545;28;20027;-36
2024/01/14 10:30:23;;;;;;;58.55;31.58;;;4.00;99.90;;;;;;5099843;28;20020;-36
2024/01/14 10:32:50;;;;;;;54.03;29.98;;;4.00;99.90;;;;;;5100713;28;20084;-36
2024/01/14 10:35:17;;;;;;;57.65;30.92;;;4.00;99.90;;;;;;5099888;28;20077;-36
2024/01/14 10:37:43;;;;;;;67.90;34.80;;;4.00;99.90;;;;;;5100718;28;21033;-36
2024/01/14 10:40:09;;;;;;;70.63;36.53;;;4.00;99.90;;;;;;5099907;28;20024;-36
2024/01/14 10:42:40;;;;;;;69.78;35.13;;;4.00;99.90;;;;;;5100758;28;20034;-36
2024/01/14 10:45:06;;;;;;;69.70;35.90;;;4.00;99.90;;;;;;5096264;28;20405;-36
2024/01/14 10:47:34;;;;;;;66.30;36.05;;;3.90;99.90;;;;;;5100548;28;20780;-37
2024/01/14 10:50:00;;;;;;;63.83;33.60;;;3.90;99.90;;;;;;5100010;28;20024;-36
2024/01/14 10:52:31;;;;;;;64.20;32.42;;;3.90;99.90;;;;;;5099813;28;20664;-35
2024/01/14 10:55:05;;;;;;;65.10;33.92;;;3.90;99.90;;;;;;5100841;28;20023;-35
2024/01/14 10:57:37;;;;;;;58.72;31.50;;;3.90;99.90;;;;;;5090659;28;20404;-36
2024/01/14 11:00:05;;;;;;;69.15;35.78;;;3.90;99.90;;;;;;5099962;28;20644;-36
2024/01/14 11:02:32;;;;;;;71.20;37.45;;;3.90;99.90;;;;;;5096464;28;20031;-36
2024/01/14 11:04:58;;;;;;;68.15;35.50;;;3.90;99.90;;;;;;5100330;28;20044;-37
2024/01/14 11:07:24;;;;;;;70.95;36.95;;;3.90;99.90;;;;;;5096334;28;20032;-36
2024/01/14 11:09:52;;;;;;;71.15;36.35;;;3.90;99.90;;;;;;5099905;28;20680;-37
2024/01/14 11:12:27;;;;;;;65.22;32.92;;;3.90;99.90;;;;;;5100055;28;20097;-37
2024/01/14 11:15:29;;;;;;;68.93;34.53;;;3.90;99.90;;;;;;5095827;28;20032;-36
2024/01/14 11:18:07;;;;;;;64.68;33.22;;;3.90;99.90;;;;;;5096816;28;20062;-37
2024/01/14 11:20:36;;;;;;;69.57;36.22;;;3.90;99.90;;;;;;5096768;28;20035;-37
2024/01/14 11:23:02;;;;;;;70.60;34.63;;;4.00;99.90;;;;;;5098800;28;20140;-36
2024/01/14 11:25:35;;;;;;;69.05;36.30;;;4.00;99.90;;;;;;5100666;28;20024;-36
2024/01/14 11:28:04;;;;;;;71.25;36.55;;;4.00;99.90;;;;;;5096989;28;20023;-36
2024/01/14 11:30:59;;;;;;;68.47;34.85;;;3.90;99.90;;;;;;5090543;28;20385;-36
2024/01/14 11:33:40;;;;;;;70.95;36.42;;;3.90;99.90;;;;;;5097857;28;20047;-36
2024/01/14 11:36:09;;;;;;;63.85;34.42;;;3.90;99.90;;;;;;5100555;28;20486;-36
2024/01/14 11:38:37;;;;;;;67.57;34.10;;;3.90;99.90;;;;;;5100422;28;20084;-36
2024/01/14 11:41:29;;;;;;;69.72;34.08;;;3.90;99.90;;;;;;5096741;28;20015;-40
2024/01/14 11:44:01;;;;;;;65.10;33.37;;;3.90;99.90;;;;;;5088692;28;20824;-37
2024/01/14 11:46:38;;;;;;;64.88;31.92;;;3.90;99.90;;;;;;5100145;28;20316;-36
2024/01/14 11:49:08;;;;;;;61.58;31.88;;;3.90;99.90;;;;;;5098182;28;20011;-36
2024/01/14 11:51:37;;;;;;;62.40;32.67;;;3.90;99.90;;;;;;5100435;28;20035;-36
2024/01/14 11:54:08;;;;;;;64.05;33.72;;;3.90;99.90;;;;;;5097493;28;20441;-36
2024/01/14 11:56:37;;;;;;;67.93;33.58;;;3.90;99.90;;;;;;5097752;28;20026;-36
2024/01/14 11:59:07;;;;;;;67.30;33.60;;;4.00;99.90;;;;;;5097136;28;20027;-37
2024/01/14 12:01:33;;;;;;;56.50;30.10;;;4.00;99.90;;;;;;5098063;28;20057;-36
2024/01/14 12:04:17;;;;;;;55.55;29.40;;;4.00;99.90;;;;;;5096813;28;20015;-36
2024/01/14 12:06:44;;;;;;;57.20;28.77;;;4.00;99.90;;;;;;5098757;28;20030;-36
2024/01/14 12:09:11;;;;;;;50.60;27.90;;;4.00;99.90;;;;;;5095767;28;20032;-36
2024/01/14 12:11:37;;;;;;;50.50;27.15;;;4.00;99.90;;;;;;5100191;28;20032;-37
2024/01/14 12:14:04;;;;;;;50.50;28.58;;;4.00;99.90;;;;;;5097416;28;20047;-35
2024/01/14 12:16:33;;;;;;;53.70;28.25;;;4.00;99.90;;;;;;5099665;28;20020;-36
2024/01/14 12:18:59;;;;;;;47.70;27.08;;;4.00;99.90;;;;;;5098554;28;20679;-35
2024/01/14 12:21:26;;;;;;;47.10;26.38;;;4.10;99.90;;;;;;5099329;28;20024;-35
2024/01/14 12:23:52;;;;;;;48.10;26.45;;;4.10;99.90;;;;;;5097993;28;20026;-35
2024/01/14 12:26:19;;;;;;;49.45;26.05;;;4.10;99.90;;;;;;5100043;28;20140;-35
2024/01/14 12:28:45;;;;;;;57.10;29.50;;;4.10;99.90;;;;;;5098948;28;20023;-35
2024/01/14 12:31:25;;;;;;;52.80;28.05;;;4.10;99.90;;;;;;5102562;28;20024;-35
2024/01/14 12:33:51;;;;;;;49.75;27.58;;;4.10;99.90;;;;;;5103777;28;20084;-35
2024/01/14 12:36:18;;;;;;;54.17;28.45;;;4.00;99.90;;;;;;5104338;28;20028;-35